Time;durP1;ratioP1;P1;durP2;ratioP2;P2;SDS_P1;SDS_P2;PMS_P1;PMS_P2;Temp;Humidity;BMP_temperature;BMP_pressure;BME280_temperature;BME280_humidity;BME280_pressure;Samples;Min_cycle;Max_cycle;Signal;HPM_P1;HPM_P2
2022/10/19 00:00:32;;;;;;;42.92;10.95;;;17.20;99.90;;;;;;6223775;28;20050;-84
2022/10/19 00:03:36;;;;;;;56.78;13.48;;;17.30;99.90;;;;;;6223981;28;20057;-84
2022/10/19 00:06:38;;;;;;;46.08;12.05;;;17.30;99.90;;;;;;6224389;28;20052;-84
2022/10/19 00:09:40;;;;;;;51.15;11.02;;;17.30;99.90;;;;;;6223131;28;20052;-84
2022/10/19 00:12:41;;;;;;;61.63;12.10;;;17.40;99.90;;;;;;6223282;28;20148;-84
2022/10/19 00:15:44;;;;;;;61.70;13.05;;;17.40;99.90;;;;;;6222942;28;20129;-83
2022/10/19 00:18:47;;;;;;;50.83;10.68;;;17.40;99.90;;;;;;6222665;28;20054;-84
2022/10/19 00:21:49;;;;;;;49.25;12.43;;;17.50;99.90;;;;;;6222570;28;20075;-83
2022/10/19 00:24:50;;;;;;;43.88;12.30;;;17.40;99.90;;;;;;6223451;28;20049;-84
2022/10/19 00:27:52;;;;;;;48.63;10.07;;;17.50;99.90;;;;;;6222446;28;20050;-84
2022/10/19 00:30:54;;;;;;;41.72;12.90;;;17.60;99.90;;;;;;6222962;28;20046;-83
2022/10/19 00:33:58;;;;;;;38.97;10.38;;;17.50;99.90;;;;;;6222630;28;20500;-83
2022/10/19 00:37:00;;;;;;;47.17;11.68;;;17.60;99.90;;;;;;6223343;28;20056;-83
2022/10/19 00:40:02;;;;;;;49.60;11.13;;;17.70;99.90;;;;;;6221061;28;20407;-84
2022/10/19 00:43:04;;;;;;;57.72;11.50;;;17.70;99.90;;;;;;6222598;28;20046;-83
2022/10/19 00:46:05;;;;;;;48.72;10.05;;;17.80;99.90;;;;;;6222765;28;20042;-83
2022/10/19 00:49:13;;;;;;;36.45;10.48;;;17.70;99.90;;;;;;6222392;28;20414;-84
2022/10/19 00:52:18;;;;;;;52.27;9.93;;;17.70;99.90;;;;;;6222143;28;20508;-83
2022/10/19 00:55:19;;;;;;;32.75;9.18;;;17.70;99.90;;;;;;6222703;28;20061;-84
2022/10/19 00:58:21;;;;;;;47.63;10.68;;;17.60;99.90;;;;;;6221920;28;20045;-84
2022/10/19 01:01:24;;;;;;;38.85;10.80;;;17.60;99.90;;;;;;6222847;28;20056;-83
2022/10/19 01:04:29;;;;;;;50.05;11.70;;;17.60;99.90;;;;;;6222624;28;20054;-83
2022/10/19 01:07:31;;;;;;;44.30;12.15;;;17.50;99.90;;;;;;6227087;28;20069;-83
2022/10/19 01:10:45;;;;;;;51.00;11.38;;;17.50;99.90;;;;;;6227266;28;20041;-83
2022/10/19 01:13:58;;;;;;;63.25;11.48;;;17.30;99.90;;;;;;6226881;28;20050;-83
2022/10/19 01:17:09;;;;;;;48.97;9.95;;;17.30;99.90;;;;;;6248586;22;20517;-81
2022/10/19 01:20:48;;;;;;;49.42;11.13;;;17.30;99.90;;;;;;6233191;28;20046;-83
2022/10/19 01:24:28;;;;;;;49.30;12.18;;;17.30;99.90;;;;;;6231960;28;20046;-84
2022/10/19 01:28:00;;;;;;;42.63;11.40;;;17.30;99.90;;;;;;6204775;28;20046;-83
2022/10/19 01:31:09;;;;;;;43.83;11.57;;;17.40;99.90;;;;;;6207242;28;20420;-84
2022/10/19 01:34:17;;;;;;;54.75;12.90;;;17.50;99.90;;;;;;6206724;28;20042;-84
2022/10/19 01:37:23;;;;;;;;;;;17.40;99.90;;;;;;6207870;28;20504;-84
2022/10/19 01:40:30;;;;;;;54.60;11.88;;;17.40;99.90;;;;;;6207505;28;20295;-83
2022/10/19 01:43:39;;;;;;;52.30;13.55;;;17.40;99.90;;;;;;6207468;28;20046;-83
2022/10/19 01:46:47;;;;;;;48.08;13.00;;;17.40;99.90;;;;;;6206936;28;20046;-84
2022/10/19 01:49:54;;;;;;;56.13;13.70;;;17.30;99.90;;;;;;6207271;28;20047;-83
2022/10/19 01:52:57;;;;;;;35.50;10.40;;;17.30;99.90;;;;;;6207683;28;20524;-83
2022/10/19 01:56:01;;;;;;;43.08;11.60;;;17.20;99.90;;;;;;6207241;28;20417;-82
2022/10/19 01:59:07;;;;;;;45.72;13.15;;;17.20;99.90;;;;;;6206717;28;20050;-81
2022/10/19 02:02:11;;;;;;;51.70;11.90;;;17.20;99.90;;;;;;6207599;28;20046;-83
2022/10/19 02:05:15;;;;;;;48.40;13.45;;;17.20;99.90;;;;;;6205433;28;20424;-83
2022/10/19 02:08:22;;;;;;;42.10;11.20;;;17.10;99.90;;;;;;6205073;28;20054;-84
2022/10/19 02:11:24;;;;;;;46.17;12.90;;;17.10;99.90;;;;;;6204118;28;20054;-83
2022/10/19 02:14:34;;;;;;;33.45;12.00;;;17.10;99.90;;;;;;6203360;28;20038;-83
2022/10/19 02:17:42;;;;;;;39.95;11.48;;;17.10;99.90;;;;;;6202317;28;20089;-83
2022/10/19 02:20:44;;;;;;;47.28;12.52;;;17.10;99.90;;;;;;6203903;28;20053;-82
2022/10/19 02:23:46;;;;;;;61.25;12.55;;;17.20;99.90;;;;;;6203158;28;20627;-84
2022/10/19 02:26:47;;;;;;;47.67;11.43;;;17.10;99.90;;;;;;6203292;28;20049;-83
2022/10/19 02:29:49;;;;;;;37.92;10.70;;;17.00;99.90;;;;;;6203019;28;20050;-83
2022/10/19 02:32:52;;;;;;;49.15;13.50;;;17.10;99.90;;;;;;6204155;28;20519;-82
2022/10/19 02:35:55;;;;;;;60.05;14.75;;;17.00;99.90;;;;;;6203424;28;20042;-83
2022/10/19 02:38:56;;;;;;;60.08;13.52;;;17.00;99.90;;;;;;6203086;28;20046;-83
2022/10/19 02:42:01;;;;;;;51.03;12.88;;;16.90;99.90;;;;;;6203020;28;20646;-84
2022/10/19 02:45:09;;;;;;;61.53;13.43;;;17.00;99.90;;;;;;6203466;28;20054;-83
2022/10/19 02:48:19;;;;;;;74.60;16.25;;;16.90;99.90;;;;;;6201974;28;20043;-84
2022/10/19 02:51:29;;;;;;;67.32;14.95;;;16.90;99.90;;;;;;6203740;28;20054;-83
2022/10/19 02:54:31;;;;;;;60.22;15.25;;;16.90;99.90;;;;;;6202715;28;20054;-82
2022/10/19 02:57:32;;;;;;;46.95;13.05;;;16.90;99.90;;;;;;6203917;28;20050;-84
2022/10/19 03:00:34;;;;;;;53.05;12.60;;;17.00;99.90;;;;;;6204709;28;20412;-82
2022/10/19 03:03:37;;;;;;;38.80;9.93;;;16.90;99.90;;;;;;6205620;28;20050;-83
2022/10/19 03:06:39;;;;;;;60.05;13.13;;;16.90;99.90;;;;;;6205758;28;20403;-82
2022/10/19 03:09:40;;;;;;;62.80;12.80;;;16.80;99.90;;;;;;6205977;28;20806;-82
2022/10/19 03:12:42;;;;;;;66.97;14.60;;;16.80;99.90;;;;;;6206051;28;20515;-82
2022/10/19 03:15:44;;;;;;;59.38;12.57;;;16.90;99.90;;;;;;6205601;28;20526;-82
2022/10/19 03:18:48;;;;;;;57.00;12.82;;;17.00;99.90;;;;;;6206872;28;20050;-83
2022/10/19 03:21:49;;;;;;;56.28;14.60;;;17.00;99.90;;;;;;6205852;28;20050;-83
2022/10/19 03:24:51;;;;;;;50.97;13.30;;;17.00;99.90;;;;;;6206563;28;20050;-83
2022/10/19 03:27:53;;;;;;;52.80;13.85;;;17.10;99.90;;;;;;6205181;28;20112;-82
2022/10/19 03:30:55;;;;;;;57.88;13.15;;;17.10;99.90;;;;;;6203836;28;20042;-82
2022/10/19 03:33:58;;;;;;;46.55;12.80;;;17.00;99.90;;;;;;6204235;28;20412;-83
2022/10/19 03:36:59;;;;;;;59.17;13.60;;;17.00;99.90;;;;;;6204174;28;20058;-82
2022/10/19 03:40:01;;;;;;;61.53;14.02;;;17.00;99.90;;;;;;6203708;28;20053;-82
2022/10/19 03:43:03;;;;;;;53.80;14.27;;;17.00;99.90;;;;;;6205996;28;20069;-82
2022/10/19 03:46:05;;;;;;;62.47;13.10;;;17.00;99.90;;;;;;6207335;28;20042;-82
2022/10/19 03:49:13;;;;;;;58.22;13.63;;;16.90;99.90;;;;;;6202213;28;20058;-82
2022/10/19 03:52:15;;;;;;;52.78;14.55;;;16.90;99.90;;;;;;6206991;28;20056;-82
2022/10/19 03:55:17;;;;;;;74.78;15.18;;;16.90;99.90;;;;;;6218499;28;20046;-82
2022/10/19 03:58:18;;;;;;;57.20;14.02;;;16.80;99.90;;;;;;6210677;28;20046;-82
2022/10/19 04:01:22;;;;;;;63.05;13.77;;;16.80;99.90;;;;;;6204555;28;20061;-83
2022/10/19 04:04:26;;;;;;;49.60;13.45;;;16.70;99.90;;;;;;6203457;28;20050;-83
2022/10/19 04:07:27;;;;;;;49.85;12.73;;;16.70;99.90;;;;;;6203383;28;20053;-83
2022/10/19 04:10:31;;;;;;;44.35;13.20;;;16.60;99.90;;;;;;6203750;28;20045;-82
2022/10/19 04:13:33;;;;;;;44.20;11.27;;;16.60;99.90;;;;;;6203470;28;20523;-82
2022/10/19 04:16:35;;;;;;;59.85;12.18;;;16.60;99.90;;;;;;6202799;28;20054;-82
2022/10/19 04:19:38;;;;;;;45.67;12.48;;;16.60;99.90;;;;;;6203648;28;20046;-83
2022/10/19 04:22:40;;;;;;;54.25;14.07;;;16.60;99.90;;;;;;6203331;28;20057;-83
2022/10/19 04:25:42;;;;;;;53.65;12.85;;;16.60;99.90;;;;;;6203318;28;20050;-82
2022/10/19 04:28:43;;;;;;;40.30;12.20;;;16.60;99.90;;;;;;6203017;28;20493;-82
2022/10/19 04:31:46;;;;;;;44.30;9.77;;;16.50;99.90;;;;;;6202121;28;20424;-82
2022/10/19 04:34:49;;;;;;;38.38;11.73;;;16.40;99.90;;;;;;6201931;28;20059;-83
2022/10/19 04:37:51;;;;;;;43.25;11.18;;;16.40;99.90;;;;;;6202087;28;20081;-83
2022/10/19 04:40:52;;;;;;;40.72;12.18;;;16.30;99.90;;;;;;6201498;28;20412;-82
2022/10/19 04:43:57;;;;;;;43.63;12.15;;;16.40;99.90;;;;;;6201744;28;20050;-82
2022/10/19 04:46:58;;;;;;;45.20;12.98;;;16.40;99.90;;;;;;6201716;28;20054;-83
2022/10/19 04:50:01;;;;;;;47.40;13.15;;;16.40;99.90;;;;;;6200948;28;20043;-82
2022/10/19 04:53:03;;;;;;;35.05;10.98;;;16.40;99.90;;;;;;6201076;28;20058;-82
2022/10/19 04:56:06;;;;;;;49.03;12.32;;;16.40;99.90;;;;;;6202744;28;20061;-82
2022/10/19 04:59:09;;;;;;;44.53;12.13;;;16.50;99.90;;;;;;6202318;28;20535;-82
2022/10/19 05:02:11;;;;;;;43.88;12.43;;;16.50;99.90;;;;;;6201811;28;20054;-82
2022/10/19 05:05:14;;;;;;;41.13;11.75;;;16.60;99.90;;;;;;6202328;28;20065;-82
2022/10/19 05:08:16;;;;;;;49.50;13.10;;;16.60;99.90;;;;;;6199930;28;20042;-83
2022/10/19 05:11:18;;;;;;;40.67;13.43;;;16.60;99.90;;;;;;6200937;28;20415;-83
2022/10/19 05:14:20;;;;;;;48.15;11.55;;;16.60;99.90;;;;;;6199998;28;20552;-83
2022/10/19 05:17:22;;;;;;;45.58;12.75;;;16.60;99.90;;;;;;6199946;28;20050;-83
2022/10/19 05:20:26;;;;;;;35.13;12.18;;;16.70;99.90;;;;;;6200032;28;20058;-84
2022/10/19 05:23:27;;;;;;;44.65;12.13;;;16.60;99.90;;;;;;6200732;28;20130;-83
2022/10/19 05:26:29;;;;;;;50.30;14.07;;;16.50;99.90;;;;;;6200027;28;20050;-83
2022/10/19 05:29:32;;;;;;;45.70;11.80;;;16.50;99.90;;;;;;6199879;28;20527;-83
2022/10/19 05:32:34;;;;;;;37.03;10.85;;;16.60;99.90;;;;;;6200204;28;20049;-84
2022/10/19 05:35:37;;;;;;;46.40;12.25;;;16.60;99.90;;;;;;6200810;28;20058;-84
2022/10/19 05:38:39;;;;;;;43.85;11.25;;;16.60;99.90;;;;;;6199731;28;20047;-83
2022/10/19 05:41:43;;;;;;;48.08;11.45;;;16.60;99.90;;;;;;6200010;28;20042;-84
2022/10/19 05:44:44;;;;;;;47.75;13.10;;;16.70;99.90;;;;;;6199940;28;20050;-84
2022/10/19 05:47:46;;;;;;;49.65;12.55;;;16.60;99.90;;;;;;6200044;28;20053;-83
2022/10/19 05:50:54;;;;;;;37.55;11.07;;;16.70;99.90;;;;;;6200560;28;20050;-84
2022/10/19 05:53:56;;;;;;;;;;;16.70;99.90;;;;;;6204579;28;20656;-83
2022/10/19 05:56:58;;;;;;;29.85;10.93;;;16.80;99.90;;;;;;6205748;28;19928;-84
2022/10/19 05:59:59;;;;;;;37.42;12.18;;;16.80;99.90;;;;;;6204726;28;20042;-84
2022/10/19 06:03:01;;;;;;;43.03;13.48;;;16.80;99.90;;;;;;6204309;28;20526;-83
2022/10/19 06:06:06;;;;;;;31.40;11.07;;;16.80;99.90;;;;;;6204673;28;20084;-84
2022/10/19 06:09:08;;;;;;;41.15;10.80;;;16.80;99.90;;;;;;6204840;28;20054;-84
2022/10/19 06:12:10;;;;;;;44.85;12.32;;;16.80;99.90;;;;;;6204323;28;20049;-83
2022/10/19 06:15:11;;;;;;;44.72;12.75;;;16.80;99.90;;;;;;6203426;28;20046;-83
2022/10/19 06:18:13;;;;;;;37.15;10.63;;;16.80;99.90;;;;;;6204332;28;20521;-83
2022/10/19 06:21:18;;;;;;;38.60;11.05;;;16.80;99.90;;;;;;6205303;28;20060;-84
2022/10/19 06:24:20;;;;;;;35.20;12.25;;;16.70;99.90;;;;;;6206033;28;20054;-84
2022/10/19 06:27:22;;;;;;;43.53;12.88;;;16.70;99.90;;;;;;6203632;28;20057;-82
2022/10/19 06:30:24;;;;;;;42.90;12.38;;;16.70;99.90;;;;;;6200679;28;20424;-83
2022/10/19 06:33:26;;;;;;;33.95;11.18;;;16.70;99.90;;;;;;6201633;28;20050;-82
2022/10/19 06:36:30;;;;;;;41.90;13.85;;;16.90;99.90;;;;;;6201302;28;20073;-83
2022/10/19 06:39:32;;;;;;;44.83;13.00;;;16.90;99.90;;;;;;6200473;28;20057;-82
2022/10/19 06:42:37;;;;;;;34.63;11.13;;;17.00;99.90;;;;;;6200931;28;20046;-83
2022/10/19 06:45:39;;;;;;;36.95;12.27;;;17.20;99.90;;;;;;6202237;28;20054;-82
2022/10/19 06:48:41;;;;;;;34.10;9.85;;;17.20;99.90;;;;;;6201493;28;20069;-82
2022/10/19 06:51:44;;;;;;;38.92;11.25;;;17.20;99.90;;;;;;6200932;28;20397;-82
2022/10/19 06:54:46;;;;;;;29.67;9.25;;;17.30;99.90;;;;;;6201093;28;20046;-82
2022/10/19 06:57:48;;;;;;;34.17;9.73;;;17.40;99.90;;;;;;6200758;28;20053;-82
2022/10/19 07:00:55;;;;;;;28.98;10.45;;;17.30;99.90;;;;;;6201621;28;20047;-82
2022/10/19 07:03:57;;;;;;;28.88;10.65;;;17.50;99.90;;;;;;6200871;28;20050;-82
2022/10/19 07:07:00;;;;;;;32.83;10.05;;;17.60;99.90;;;;;;6200909;28;20535;-83
2022/10/19 07:10:02;;;;;;;23.63;9.55;;;17.80;99.90;;;;;;6200671;28;20042;-83
2022/10/19 07:13:04;;;;;;;23.90;9.38;;;18.10;99.90;;;;;;6201771;28;20488;-82
2022/10/19 07:16:10;;;;;;;28.63;10.15;;;18.30;99.90;;;;;;6245698;23;20053;-86
2022/10/19 07:19:12;;;;;;;18.83;8.88;;;18.40;99.90;;;;;;6249173;28;20076;-83
2022/10/19 07:22:15;;;;;;;24.65;8.63;;;18.60;99.90;;;;;;6249472;28;20045;-84
2022/10/19 07:25:17;;;;;;;23.75;8.35;;;18.90;99.90;;;;;;6250415;28;20518;-83
2022/10/19 07:28:19;;;;;;;24.63;8.88;;;19.20;99.90;;;;;;6252888;28;20052;-84
2022/10/19 07:31:23;;;;;;;17.92;7.15;;;19.30;99.90;;;;;;6250053;28;20517;-84
2022/10/19 07:34:24;;;;;;;21.95;8.20;;;19.30;99.90;;;;;;6249065;28;20052;-84
2022/10/19 07:37:27;;;;;;;16.75;7.97;;;19.40;99.90;;;;;;6248556;28;20510;-83
2022/10/19 07:40:29;;;;;;;20.65;7.25;;;19.70;99.90;;;;;;6223234;28;20426;-83
2022/10/19 07:43:31;;;;;;;13.55;6.47;;;20.00;99.90;;;;;;6249378;28;20039;-84
2022/10/19 07:46:54;;;;;;;11.25;6.07;;;20.30;99.90;;;;;;6248408;28;20056;-85
2022/10/19 07:49:56;;;;;;;13.77;6.93;;;20.20;99.90;;;;;;6233462;28;20053;-83
2022/10/19 07:52:59;;;;;;;11.23;5.50;;;20.10;99.90;;;;;;6227850;28;20423;-83
2022/10/19 07:56:04;;;;;;;11.43;5.47;;;20.00;99.90;;;;;;6237104;28;20419;-83
2022/10/19 07:59:06;;;;;;;15.65;6.45;;;19.90;99.90;;;;;;6249331;28;20053;-84
2022/10/19 08:02:13;;;;;;;16.40;7.30;;;19.80;99.90;;;;;;6249776;28;20045;-83
2022/10/19 08:05:15;;;;;;;12.88;5.93;;;19.80;99.90;;;;;;6250132;28;20056;-84
2022/10/19 08:08:18;;;;;;;13.95;6.85;;;20.00;99.90;;;;;;6247529;28;20053;-85
2022/10/19 08:11:22;;;;;;;15.07;6.68;;;20.10;99.90;;;;;;6248583;28;20046;-84
2022/10/19 08:14:24;;;;;;;12.15;5.65;;;20.30;99.90;;;;;;6247045;28;20499;-84
2022/10/19 08:17:26;;;;;;;15.85;5.47;;;20.50;99.90;;;;;;6247526;28;20104;-84
2022/10/19 08:20:28;;;;;;;11.40;5.85;;;20.70;99.90;;;;;;6247893;28;20049;-84
2022/10/19 08:23:31;;;;;;;14.15;5.55;;;20.80;99.90;;;;;;6248020;28;20061;-85
2022/10/19 08:26:35;;;;;;;9.20;5.55;;;20.60;99.90;;;;;;6247625;28;20037;-85
2022/10/19 08:29:37;;;;;;;10.82;5.88;;;20.40;99.90;;;;;;6248125;28;20545;-85
2022/10/19 08:32:38;;;;;;;12.10;5.90;;;20.30;99.90;;;;;;6247422;28;20152;-85
2022/10/19 08:35:40;;;;;;;10.77;6.30;;;20.30;99.90;;;;;;6247629;28;20053;-84
2022/10/19 08:38:43;;;;;;;10.77;6.10;;;20.60;99.90;;;;;;6248087;28;20056;-83
2022/10/19 08:41:55;;;;;;;12.18;5.85;;;20.50;99.90;;;;;;6247870;28;20045;-85
2022/10/19 08:45:13;;;;;;;13.93;6.22;;;20.40;99.90;;;;;;6248077;28;20053;-85
2022/10/19 08:48:35;;;;;;;12.50;6.47;;;20.10;99.90;;;;;;6248084;28;20053;-83
2022/10/19 08:51:40;;;;;;;12.15;6.32;;;20.10;99.90;;;;;;6248408;28;20295;-84
2022/10/19 08:54:53;;;;;;;12.82;5.90;;;20.00;99.90;;;;;;6247686;28;20045;-85
2022/10/19 08:58:02;;;;;;;13.73;6.85;;;20.10;99.90;;;;;;6222369;28;20088;-84
2022/10/19 09:01:07;;;;;;;13.98;5.82;;;20.00;99.90;;;;;;6224018;28;20057;-84
2022/10/19 09:04:16;;;;;;;11.30;6.15;;;20.00;99.90;;;;;;6222612;28;20534;-84
2022/10/19 09:07:24;;;;;;;10.95;5.47;;;19.90;99.90;;;;;;6223383;28;20045;-85
2022/10/19 09:10:29;;;;;;;12.80;5.97;;;19.90;99.90;;;;;;6222889;28;20049;-85
2022/10/19 09:13:37;;;;;;;8.85;5.13;;;19.70;99.90;;;;;;6223331;28;20491;-85
2022/10/19 09:16:39;;;;;;;13.50;6.18;;;19.60;99.90;;;;;;6246683;28;20073;-84
2022/10/19 09:19:41;;;;;;;12.27;5.32;;;19.50;99.90;;;;;;6246925;28;20068;-84
2022/10/19 09:22:43;;;;;;;12.15;5.30;;;19.50;99.90;;;;;;6247993;28;20046;-85
2022/10/19 09:25:49;;;;;;;10.63;5.38;;;19.70;99.90;;;;;;6247981;28;20049;-84
2022/10/19 09:28:54;;;;;;;10.60;5.07;;;19.70;99.90;;;;;;6252402;28;20054;-86
2022/10/19 09:32:00;;;;;;;6.43;4.30;;;20.10;99.90;;;;;;6251934;28;20572;-85
2022/10/19 09:35:05;;;;;;;12.68;6.45;;;20.30;99.90;;;;;;6251652;28;20049;-85
2022/10/19 09:38:07;;;;;;;7.78;4.65;;;20.60;99.90;;;;;;6252060;28;20148;-85
2022/10/19 09:41:17;;;;;;;11.30;4.40;;;21.10;99.90;;;;;;6252573;28;20531;-84
2022/10/19 09:44:19;;;;;;;15.40;4.38;;;21.50;99.90;;;;;;6252588;28;20045;-86
2022/10/19 09:47:32;;;;;;;8.25;4.15;;;21.90;99.90;;;;;;6251377;28;20461;-85
2022/10/19 09:50:36;;;;;;;12.38;5.70;;;21.90;99.90;;;;;;6251748;28;20099;-87
2022/10/19 09:53:43;;;;;;;11.05;4.22;;;22.00;99.10;;;;;;6252140;28;20053;-85
2022/10/19 09:56:56;;;;;;;10.50;4.20;;;21.90;99.40;;;;;;6243754;28;20049;-86
2022/10/19 10:00:00;;;;;;;8.75;4.10;;;21.80;99.60;;;;;;6215274;28;20054;-85
2022/10/19 10:03:01;;;;;;;8.18;4.75;;;21.70;99.10;;;;;;6226681;28;20069;-85
2022/10/19 10:06:07;;;;;;;8.00;4.10;;;21.50;99.30;;;;;;6226696;28;20045;-84
2022/10/19 10:09:15;;;;;;;15.95;3.97;;;21.40;99.00;;;;;;6229864;28;20101;-84
2022/10/19 10:12:18;;;;;;;9.52;4.45;;;21.20;99.20;;;;;;6227723;28;20053;-84
2022/10/19 10:15:24;;;;;;;8.43;4.57;;;21.10;98.90;;;;;;6241604;28;20041;-87
2022/10/19 10:18:28;;;;;;;10.55;5.47;;;21.00;99.20;;;;;;6253706;28;20045;-84
2022/10/19 10:21:33;;;;;;;8.57;4.40;;;20.90;99.30;;;;;;6251160;28;20068;-85
2022/10/19 10:24:35;;;;;;;11.52;4.95;;;20.80;99.00;;;;;;6251635;28;20052;-85
2022/10/19 10:27:39;;;;;;;9.80;4.35;;;20.80;99.30;;;;;;6250927;28;20076;-85
2022/10/19 10:30:41;;;;;;;10.25;4.93;;;20.80;99.20;;;;;;6250955;28;20045;-86
2022/10/19 10:33:42;;;;;;;8.77;4.78;;;20.80;99.10;;;;;;6250772;28;20132;-85
2022/10/19 10:36:48;;;;;;;11.85;4.75;;;21.00;99.10;;;;;;6251021;28;20049;-84
2022/10/19 10:39:52;;;;;;;7.30;3.72;;;21.20;98.70;;;;;;6251237;28;20446;-84
2022/10/19 10:42:58;;;;;;;8.20;4.95;;;21.30;98.60;;;;;;6253053;28;20046;-86
2022/10/19 10:46:03;;;;;;;11.50;4.25;;;21.40;98.50;;;;;;6251319;28;20045;-85
2022/10/19 10:49:08;;;;;;;8.23;4.00;;;21.70;98.40;;;;;;6253254;28;20061;-85
2022/10/19 10:52:13;;;;;;;6.97;3.30;;;21.90;97.70;;;;;;6250224;28;20060;-85
2022/10/19 10:55:17;;;;;;;8.40;3.75;;;22.20;97.60;;;;;;6249719;28;20519;-85
2022/10/19 10:58:34;;;;;;;14.13;3.70;;;22.70;97.40;;;;;;6248985;28;20053;-85
2022/10/19 11:01:41;;;;;;;6.55;2.97;;;23.00;96.50;;;;;;6251063;28;20514;-85
2022/10/19 11:04:51;;;;;;;6.17;3.40;;;23.50;95.90;;;;;;6225549;28;20054;-85
2022/10/19 11:07:56;;;;;;;8.55;3.70;;;23.50;95.10;;;;;;6243321;28;20049;-85
2022/10/19 11:11:04;;;;;;;5.38;3.42;;;23.40;94.80;;;;;;6249890;28;20053;-84
2022/10/19 11:14:32;;;;;;;8.80;2.88;;;23.40;94.20;;;;;;6250012;28;20614;-85
2022/10/19 11:17:49;;;;;;;5.13;2.90;;;23.10;93.50;;;;;;6249953;28;20107;-85
2022/10/19 11:20:59;;;;;;;6.90;2.80;;;23.00;94.10;;;;;;6249816;28;20049;-86
2022/10/19 11:24:20;;;;;;;5.13;2.78;;;23.10;94.30;;;;;;6229940;28;20046;-85
2022/10/19 11:27:38;;;;;;;5.57;2.67;;;23.00;93.60;;;;;;6224213;28;20416;-86
2022/10/19 11:30:58;;;;;;;5.00;2.17;;;23.10;93.80;;;;;;6224656;28;20050;-86
2022/10/19 11:34:06;;;;;;;6.50;2.72;;;23.50;93.60;;;;;;6224456;28;20407;-86
2022/10/19 11:37:21;;;;;;;5.78;2.88;;;23.70;92.80;;;;;;6225576;28;20132;-86
2022/10/19 11:40:27;;;;;;;5.30;2.95;;;23.80;92.00;;;;;;6224748;28;20046;-85
2022/10/19 11:43:35;;;;;;;2.70;1.88;;;23.70;91.70;;;;;;6224370;28;20052;-85
2022/10/19 11:46:45;;;;;;;4.00;2.08;;;23.70;91.10;;;;;;6224968;28;20053;-85
2022/10/19 11:50:01;;;;;;;3.13;1.85;;;23.20;91.30;;;;;;6227312;28;20053;-85
2022/10/19 11:53:13;;;;;;;3.85;2.35;;;23.10;92.10;;;;;;6226758;28;20128;-85
2022/10/19 11:56:27;;;;;;;2.92;1.38;;;23.20;91.90;;;;;;6226600;28;20049;-85
2022/10/19 11:59:40;;;;;;;3.40;2.15;;;23.30;91.10;;;;;;6220447;28;20168;-85
2022/10/19 12:03:06;;;;;;;4.38;2.80;;;23.30;91.40;;;;;;6201142;28;20046;-85
2022/10/19 12:06:17;;;;;;;5.13;2.65;;;23.20;91.00;;;;;;6200192;28;20488;-86
2022/10/19 12:09:33;;;;;;;4.60;1.52;;;23.10;91.20;;;;;;6200916;28;20050;-85
2022/10/19 12:13:10;;;;;;;17.35;2.03;;;23.00;91.30;;;;;;6199621;28;20496;-86
2022/10/19 12:16:19;;;;;;;6.70;1.65;;;22.90;91.40;;;;;;6220122;28;20068;-86
2022/10/19 12:19:26;;;;;;;2.58;1.60;;;23.00;91.40;;;;;;6227675;28;20050;-84
2022/10/19 12:22:30;;;;;;;4.95;1.42;;;23.10;91.20;;;;;;6227772;28;20050;-84
2022/10/19 12:25:32;;;;;;;3.25;1.50;;;23.00;91.00;;;;;;6226963;28;20153;-85
2022/10/19 12:28:37;;;;;;;4.10;1.70;;;23.00;91.10;;;;;;6225017;28;20053;-84
2022/10/19 12:31:40;;;;;;;2.60;1.50;;;22.90;90.80;;;;;;6224330;28;20045;-86
2022/10/19 12:34:52;;;;;;;1.70;1.33;;;22.60;90.80;;;;;;6225270;28;20049;-85
2022/10/19 12:37:58;;;;;;;2.95;1.30;;;22.60;91.40;;;;;;6224388;28;20061;-85
2022/10/19 12:41:10;;;;;;;1.55;1.05;;;22.50;91.00;;;;;;6225624;28;20049;-85
2022/10/19 12:44:26;;;;;;;2.00;1.20;;;22.40;91.30;;;;;;6224671;28;20046;-86
2022/10/19 12:47:28;;;;;;;3.53;1.65;;;22.30;91.30;;;;;;6222921;28;20515;-86
2022/10/19 12:51:06;;;;;;;1.92;0.98;;;22.20;91.40;;;;;;6224853;28;20056;-85
2022/10/19 12:54:09;;;;;;;4.68;1.23;;;22.20;92.10;;;;;;6224302;28;20037;-84
2022/10/19 12:57:38;;;;;;;2.17;0.85;;;22.30;91.80;;;;;;6225631;28;20141;-85
2022/10/19 13:00:40;;;;;;;4.85;1.33;;;22.50;91.60;;;;;;6178313;28;20069;-85
2022/10/19 13:03:44;;;;;;;4.13;1.38;;;22.50;91.20;;;;;;6225468;28;20052;-84
2022/10/19 13:06:49;;;;;;;2.30;1.20;;;22.40;91.40;;;;;;6225512;28;20073;-85
2022/10/19 13:10:01;;;;;;;1.27;0.55;;;22.40;91.80;;;;;;6224558;28;20061;-85
2022/10/19 13:13:02;;;;;;;2.22;1.13;;;22.30;91.20;;;;;;6225421;28;20487;-84
2022/10/19 13:16:55;;;;;;;6.80;1.50;;;22.40;91.70;;;;;;6224680;28;20045;-84
2022/10/19 13:20:38;;;;;;;0.95;0.75;;;22.60;91.50;;;;;;6222122;28;20408;-84
2022/10/19 13:23:44;;;;;;;1.58;1.00;;;22.50;91.20;;;;;;6222602;28;20049;-84
2022/10/19 13:26:45;;;;;;;1.63;0.90;;;22.60;91.10;;;;;;6222433;28;20046;-84
2022/10/19 13:29:47;;;;;;;0.90;0.70;;;22.60;90.80;;;;;;6223996;28;20046;-85
2022/10/19 13:32:50;;;;;;;1.50;0.90;;;22.60;90.90;;;;;;6222771;28;20054;-84
2022/10/19 13:36:07;;;;;;;2.55;1.23;;;22.80;90.70;;;;;;6222301;28;20430;-85
2022/10/19 13:39:16;;;;;;;1.40;1.05;;;22.70;89.80;;;;;;6222124;28;20046;-84
2022/10/19 13:42:25;;;;;;;2.53;0.80;;;22.40;89.90;;;;;;6222365;28;20038;-84
2022/10/19 13:45:27;;;;;;;2.10;1.13;;;22.20;90.20;;;;;;6222503;28;20136;-84
2022/10/19 13:48:38;;;;;;;2.30;1.15;;;22.00;90.20;;;;;;6222330;28;20053;-85
2022/10/19 13:51:53;;;;;;;2.67;0.55;;;21.80;90.30;;;;;;6222367;28;20421;-84
2022/10/19 13:55:18;;;;;;;1.52;0.90;;;21.70;90.50;;;;;;6222294;28;20042;-84
2022/10/19 13:59:03;;;;;;;1.23;0.80;;;21.70;90.80;;;;;;6221849;28;20546;-84
2022/10/19 14:02:49;;;;;;;0.90;0.63;;;21.40;90.90;;;;;;6205646;28;20068;-84
2022/10/19 14:06:14;;;;;;;1.65;0.95;;;21.20;91.50;;;;;;6197243;28;20085;-84
2022/10/19 14:09:43;;;;;;;1.25;0.85;;;21.30;91.70;;;;;;6199742;28;20054;-84
2022/10/19 14:13:23;;;;;;;1.27;1.10;;;21.30;91.80;;;;;;6199038;28;20408;-84
2022/10/19 14:16:26;;;;;;;1.25;0.98;;;21.30;91.80;;;;;;6247894;28;20042;-84
2022/10/19 14:19:41;;;;;;;2.95;0.60;;;21.40;91.70;;;;;;6251941;28;20049;-84
2022/10/19 14:22:49;;;;;;;2.38;0.80;;;21.30;91.80;;;;;;6252051;28;20046;-85
2022/10/19 14:29:22;;;;;;;9.57;1.40;;;21.40;91.90;;;;;;6251117;28;20128;-84
2022/10/19 14:32:27;;;;;;;2.78;0.70;;;21.50;91.70;;;;;;6251056;28;20414;-84
2022/10/19 14:35:33;;;;;;;1.40;0.50;;;21.40;91.60;;;;;;6250909;28;20045;-84
2022/10/19 14:38:37;;;;;;;1.80;1.23;;;21.30;91.90;;;;;;6250006;28;20037;-84
2022/10/19 14:41:38;;;;;;;2.20;0.88;;;21.20;91.90;;;;;;6250589;28;20491;-84
2022/10/19 14:44:42;;;;;;;1.52;0.88;;;21.10;91.90;;;;;;6250569;28;20049;-84
2022/10/19 14:47:57;;;;;;;3.67;1.05;;;21.10;92.10;;;;;;6250659;28;20049;-84
2022/10/19 14:50:59;;;;;;;1.25;0.73;;;21.00;92.30;;;;;;6251853;28;20502;-84
2022/10/19 14:54:05;;;;;;;2.25;0.80;;;21.00;92.40;;;;;;6250385;28;20042;-84
2022/10/19 14:57:12;;;;;;;3.10;0.73;;;21.00;92.60;;;;;;6249843;28;20517;-84
2022/10/19 15:00:19;;;;;;;3.60;0.75;;;21.10;92.60;;;;;;6249454;28;20126;-84
2022/10/19 15:03:26;;;;;;;2.27;1.33;;;21.20;92.60;;;;;;6249142;28;20064;-84
2022/10/19 15:06:30;;;;;;;2.95;0.98;;;21.40;92.50;;;;;;6249555;28;20042;-83
2022/10/19 15:09:35;;;;;;;1.55;0.90;;;21.50;92.40;;;;;;6250808;28;20057;-83
2022/10/19 15:12:40;;;;;;;1.73;0.85;;;21.50;92.20;;;;;;6249464;28;20710;-83
2022/10/19 15:15:42;;;;;;;6.40;1.15;;;21.50;92.10;;;;;;6249352;28;20048;-84
2022/10/19 15:18:45;;;;;;;1.83;0.80;;;21.30;92.20;;;;;;6249209;28;20046;-84
2022/10/19 15:21:46;;;;;;;3.65;1.08;;;21.10;92.10;;;;;;6250085;28;20491;-83
2022/10/19 15:25:00;;;;;;;3.05;0.75;;;21.00;92.30;;;;;;6249646;28;20053;-83
2022/10/19 15:28:31;;;;;;;1.83;1.10;;;20.90;92.50;;;;;;6249172;28;20057;-82
2022/10/19 15:31:33;;;;;;;5.28;1.00;;;20.70;92.40;;;;;;6249663;28;20049;-83
2022/10/19 15:34:36;;;;;;;4.03;0.95;;;20.60;92.40;;;;;;6249249;28;20048;-82
2022/10/19 15:37:41;;;;;;;2.00;1.10;;;20.50;92.60;;;;;;6250419;28;20056;-82
2022/10/19 15:40:45;;;;;;;2.20;1.25;;;20.50;92.60;;;;;;6225357;28;20060;-83
2022/10/19 15:43:51;;;;;;;3.30;1.30;;;20.30;92.80;;;;;;6225015;28;20050;-83
2022/10/19 15:47:22;;;;;;;2.15;0.90;;;20.20;93.00;;;;;;6224441;28;20050;-83
2022/10/19 15:50:37;;;;;;;3.22;1.27;;;20.00;93.20;;;;;;6224969;28;20056;-84
2022/10/19 15:53:38;;;;;;;2.95;1.40;;;19.90;93.30;;;;;;6224985;28;20050;-85
2022/10/19 15:56:40;;;;;;;4.47;1.15;;;19.80;93.40;;;;;;6225311;28;20080;-83
2022/10/19 15:59:42;;;;;;;5.60;1.23;;;19.70;93.60;;;;;;6223765;28;20516;-83